If you wish to contribute or participate in the discussions about articles you are invited to join SKYbrary as a registered user

 Actions

Châteaudun (BA 279) Airport

From SKYbrary Wiki

LFOC
Airport
ICAO: LFOC
Summary
Name Châteaudun (BA 279) Airport
Region Europe
Territory France FR.gif
Location , Centre
Serving Chateaudun
Elevation 131.978 m
433 ft
433 ft131.978 m
Type medium airport
Coordinates 48° 3' 29.31" N, 1° 22' 35.85" E
Runways
Designator Length Width Surface ROPS
10/28 2302 m7,552.493 ft
45 m147.638 ft
ASP /


METAR
Observation LFOC 222300Z AUTO 03005KT CAVOK 16/10 Q1025
Station Chateaudun
Date/Time 22 August 2019 23:00:00
Wind direction 30°
Wind speed 05 kts
Lowest cloud amount clouds and visibility OK
Temperature 16°C
Dew point 10°C
Humidity 67%
QNH 1025 hPa
Weather condition n/a